Time;durP1;ratioP1;P1;durP2;ratioP2;P2;SDS_P1;SDS_P2;PMS_P1;PMS_P2;Temp;Humidity;BMP_temperature;BMP_pressure;BME280_temperature;BME280_humidity;BME280_pressure;Samples;Min_cycle;Max_cycle;Signal;HPM_P1;HPM_P2
2023/11/20 00:02:13;;;;;;;3.30;1.27;;;;;;;10.32;100.00;100103.41;5056874;28;20454;-73
2023/11/20 00:04:39;;;;;;;3.03;1.10;;;;;;;10.33;100.00;100094.16;5056671;28;20541;-73
2023/11/20 00:07:08;;;;;;;2.20;0.60;;;;;;;10.32;100.00;100100.69;5056580;28;20480;-73
2023/11/20 00:09:34;;;;;;;3.60;0.80;;;;;;;10.34;100.00;100095.75;5056473;28;20525;-73
2023/11/20 00:12:02;;;;;;;2.57;0.80;;;;;;;10.30;100.00;100089.38;5056453;28;20524;-73
2023/11/20 00:14:29;;;;;;;2.30;0.80;;;;;;;10.31;100.00;100093.69;5056675;28;20895;-72
2023/11/20 00:16:55;;;;;;;22.17;1.63;;;;;;;10.28;100.00;100091.59;5056418;28;20480;-72
2023/11/20 00:19:23;;;;;;;2.63;0.93;;;;;;;10.27;100.00;100092.72;5056439;28;20446;-72
2023/11/20 00:21:50;;;;;;;3.30;1.13;;;;;;;10.26;100.00;100088.38;5056620;28;20456;-72
2023/11/20 00:24:18;;;;;;;2.30;0.67;;;;;;;10.26;100.00;100090.31;5056820;28;20527;-72
2023/11/20 00:26:45;;;;;;;2.13;0.60;;;;;;;10.22;100.00;100090.09;5055859;28;20533;-72
2023/11/20 00:29:11;;;;;;;2.27;0.90;;;;;;;10.23;100.00;100091.72;5056293;28;20477;-72
2023/11/20 00:31:38;;;;;;;2.93;1.23;;;;;;;10.22;100.00;100087.38;5055996;28;20573;-72
2023/11/20 00:34:05;;;;;;;3.07;1.07;;;;;;;10.24;100.00;100085.22;5056155;28;20497;-72
2023/11/20 00:36:32;;;;;;;2.50;0.77;;;;;;;10.20;100.00;100078.78;5055983;28;20442;-72
2023/11/20 00:38:58;;;;;;;2.30;0.80;;;;;;;10.23;100.00;100072.75;5055788;28;20473;-72
2023/11/20 00:41:30;;;;;;;6.27;1.10;;;;;;;10.20;100.00;100081.50;5056111;28;20442;-72
2023/11/20 00:43:59;;;;;;;2.50;0.80;;;;;;;10.22;100.00;100070.34;5056040;28;20458;-72
2023/11/20 00:46:26;;;;;;;2.43;0.70;;;;;;;10.22;100.00;100075.75;5055387;28;20942;-72
2023/11/20 00:48:52;;;;;;;2.00;0.60;;;;;;;10.25;100.00;100078.69;5056170;28;20485;-72
2023/11/20 00:51:19;;;;;;;2.00;0.60;;;;;;;10.21;100.00;100072.25;5055306;28;21027;-71
2023/11/20 00:53:48;;;;;;;2.00;0.60;;;;;;;10.19;100.00;100077.19;5055567;28;20579;-72
2023/11/20 00:56:18;;;;;;;3.13;1.03;;;;;;;10.19;100.00;100079.91;5055525;28;20438;-72
2023/11/20 00:58:46;;;;;;;2.53;0.73;;;;;;;10.19;100.00;100074.50;5055752;28;20526;-71
2023/11/20 01:01:12;;;;;;;5.47;1.47;;;;;;;10.16;100.00;100061.56;5055423;28;20945;-72
2023/11/20 01:03:39;;;;;;;2.47;0.70;;;;;;;10.20;100.00;100067.97;5070855;22;20563;-68
2023/11/20 01:06:08;;;;;;;2.40;0.67;;;;;;;10.19;100.00;100065.56;5055790;28;20450;-68
2023/11/20 01:08:35;;;;;;;2.20;0.60;;;;;;;10.18;100.00;100067.50;5055300;28;20442;-68
2023/11/20 01:11:02;;;;;;;2.17;0.50;;;;;;;10.18;100.00;100063.97;5055183;28;20446;-68
2023/11/20 01:13:29;;;;;;;2.27;0.60;;;;;;;10.19;100.00;100065.56;5055256;28;20462;-68
2023/11/20 01:15:57;;;;;;;2.97;0.77;;;;;;;10.16;100.00;100068.91;5055605;28;20496;-68
2023/11/20 01:18:23;;;;;;;2.27;0.77;;;;;;;10.16;100.00;100066.19;5055432;28;20442;-68
2023/11/20 01:20:50;;;;;;;2.20;0.70;;;;;;;10.22;100.00;100065.72;5055660;28;20442;-68
2023/11/20 01:23:17;;;;;;;2.17;0.60;;;;;;;10.21;100.00;100063.34;5054969;28;20470;-68
2023/11/20 01:25:43;;;;;;;2.17;0.60;;;;;;;10.18;100.00;100064.78;5054925;28;20976;-68
2023/11/20 01:28:10;;;;;;;2.20;0.70;;;;;;;10.18;100.00;100059.38;5054628;28;20452;-68
2023/11/20 01:30:37;;;;;;;2.30;0.80;;;;;;;10.17;100.00;100057.75;5054970;28;20484;-68
2023/11/20 01:33:04;;;;;;;2.80;1.07;;;;;;;10.15;100.00;100057.28;5054859;28;20989;-68
2023/11/20 01:35:31;;;;;;;2.37;0.50;;;;;;;10.14;100.00;100063.81;5054556;28;20525;-68
2023/11/20 01:37:58;;;;;;;4.50;0.97;;;;;;;10.13;100.00;100061.38;5054780;28;20521;-68
2023/11/20 01:40:24;;;;;;;2.00;0.60;;;;;;;10.13;100.00;100059.47;5055310;28;20981;-68
2023/11/20 01:42:51;;;;;;;2.30;0.60;;;;;;;10.13;100.00;100064.88;5054732;28;20492;-68
2023/11/20 01:45:18;;;;;;;2.50;0.60;;;;;;;10.15;100.00;100059.19;5054252;28;20512;-68
2023/11/20 01:47:44;;;;;;;2.10;0.67;;;;;;;10.16;100.00;100061.56;5054332;28;20477;-68
2023/11/20 01:50:14;;;;;;;2.90;1.20;;;;;;;10.18;100.00;100059.38;5053618;28;20537;-68
2023/11/20 01:52:44;;;;;;;2.10;0.60;;;;;;;10.17;100.00;100049.63;5054687;28;20568;-68
2023/11/20 01:55:13;;;;;;;1.93;0.50;;;;;;;10.18;100.00;100059.38;5054288;28;20462;-68
2023/11/20 01:57:46;;;;;;;2.10;0.50;;;;;;;10.16;100.00;100050.75;5054391;28;20521;-68
2023/11/20 02:00:14;;;;;;;2.60;0.70;;;;;;;10.16;100.00;100042.63;5054514;28;20434;-68
2023/11/20 02:02:42;;;;;;;2.10;0.60;;;;;;;10.18;100.00;100040.44;5054118;28;20450;-68
2023/11/20 02:05:09;;;;;;;2.30;1.00;;;;;;;10.14;100.00;100047.56;5054603;28;20461;-68
2023/11/20 02:07:37;;;;;;;1.80;0.40;;;;;;;10.13;100.00;100040.53;5054234;28;20468;-67
2023/11/20 02:10:05;;;;;;;2.50;0.90;;;;;;;10.12;100.00;100038.94;5054190;28;20478;-68
2023/11/20 02:12:32;;;;;;;2.57;0.60;;;;;;;10.16;100.00;100034.50;5054126;28;20587;-68
2023/11/20 02:14:59;;;;;;;2.30;0.83;;;;;;;10.15;100.00;100035.63;5053797;28;20458;-68
2023/11/20 02:17:26;;;;;;;2.27;0.60;;;;;;;10.15;100.00;100032.91;5053935;28;20880;-68
2023/11/20 02:19:53;;;;;;;2.10;0.70;;;;;;;10.18;100.00;100037.72;5053830;28;20818;-68
2023/11/20 02:22:20;;;;;;;2.33;0.70;;;;;;;10.18;100.00;100026.06;5054301;28;20437;-68
2023/11/20 02:24:48;;;;;;;2.00;0.50;;;;;;;10.21;100.00;100023.53;5053866;28;20482;-68
2023/11/20 02:27:32;;;;;;;1.93;0.47;;;;;;;10.18;100.00;100028.78;5053856;28;20867;-68
2023/11/20 02:30:03;;;;;;;3.40;1.00;;;;;;;10.13;100.00;100029.72;5053642;28;20492;-68
2023/11/20 02:32:30;;;;;;;2.17;0.60;;;;;;;10.14;100.00;100017.78;5053787;28;20466;-68
2023/11/20 02:34:57;;;;;;;2.20;0.60;;;;;;;10.13;100.00;100027.00;5053725;28;20461;-68
2023/11/20 02:37:25;;;;;;;1.97;0.50;;;;;;;10.13;100.00;100013.47;5053824;28;20434;-68
2023/11/20 02:39:52;;;;;;;2.10;0.50;;;;;;;10.15;100.00;100018.59;5053769;28;20485;-68
2023/11/20 02:42:19;;;;;;;2.17;0.70;;;;;;;10.12;100.00;100017.28;5053953;28;20430;-68
2023/11/20 02:44:46;;;;;;;2.73;0.60;;;;;;;10.11;100.00;100015.72;5053710;28;20490;-68
2023/11/20 02:47:14;;;;;;;2.50;0.60;;;;;;;10.12;100.00;100006.47;5053679;28;20445;-68
2023/11/20 02:49:41;;;;;;;2.00;0.47;;;;;;;10.09;100.00;100001.66;5053306;28;20858;-68
2023/11/20 02:52:08;;;;;;;2.40;0.60;;;;;;;10.08;100.00;100000.09;5053827;28;20478;-67
2023/11/20 02:54:36;;;;;;;2.00;0.50;;;;;;;10.09;100.00;100002.50;5053083;28;21016;-67
2023/11/20 02:57:03;;;;;;;1.90;0.47;;;;;;;10.08;100.00;99995.47;5053905;28;20442;-67
2023/11/20 02:59:29;;;;;;;2.50;0.70;;;;;;;10.06;100.00;99997.69;5053736;28;20520;-67
2023/11/20 03:01:56;;;;;;;2.00;0.50;;;;;;;10.09;100.00;99990.84;5053450;28;20438;-67
2023/11/20 03:04:24;;;;;;;2.23;0.50;;;;;;;10.08;100.00;99995.47;5053367;28;20876;-67
2023/11/20 03:06:51;;;;;;;1.87;0.40;;;;;;;10.09;100.00;99991.69;5053401;28;20910;-67
2023/11/20 03:09:18;;;;;;;1.90;0.50;;;;;;;10.13;100.00;99985.63;5053439;28;20541;-68
2023/11/20 03:11:45;;;;;;;1.83;0.43;;;;;;;10.12;100.00;99998.34;5053366;28;20489;-68
2023/11/20 03:14:12;;;;;;;2.00;0.50;;;;;;;10.13;100.00;99991.03;5053135;28;20519;-67
2023/11/20 03:16:39;;;;;;;2.43;0.77;;;;;;;10.13;100.00;99991.81;5053371;28;20525;-67
2023/11/20 03:19:06;;;;;;;2.10;0.60;;;;;;;10.13;100.00;99986.41;5053368;28;20529;-67
2023/11/20 03:21:36;;;;;;;2.00;0.40;;;;;;;10.16;100.00;99991.22;5053615;28;20468;-67
2023/11/20 03:24:03;;;;;;;2.00;0.50;;;;;;;10.16;100.00;99985.00;5053229;28;20465;-67
2023/11/20 03:26:30;;;;;;;2.53;0.80;;;;;;;10.17;100.00;99992.00;5053131;28;20478;-67
2023/11/20 03:28:57;;;;;;;2.00;0.53;;;;;;;10.15;100.00;99989.63;5053041;28;20430;-67
2023/11/20 03:31:23;;;;;;;2.00;0.50;;;;;;;10.16;100.00;99987.72;5053232;28;20442;-67
2023/11/20 03:33:50;;;;;;;1.83;0.40;;;;;;;10.15;100.00;99995.03;5053162;28;20568;-68
2023/11/20 03:36:20;;;;;;;2.00;0.50;;;;;;;10.16;100.00;99985.78;5053594;28;20469;-68
2023/11/20 03:38:48;;;;;;;2.10;0.60;;;;;;;10.14;100.00;99985.31;5053213;28;20472;-67
2023/11/20 03:41:15;;;;;;;2.30;0.60;;;;;;;10.13;100.00;99982.91;5052955;28;20500;-67
2023/11/20 03:43:41;;;;;;;2.27;0.60;;;;;;;10.13;100.00;99981.00;5053044;28;20486;-67
2023/11/20 03:46:08;;;;;;;2.20;0.60;;;;;;;10.11;100.00;99977.81;5053077;28;20469;-67
2023/11/20 03:48:34;;;;;;;1.87;0.40;;;;;;;10.13;100.00;99974.78;5053059;28;20508;-67
2023/11/20 03:51:04;;;;;;;2.50;0.63;;;;;;;10.10;100.00;99979.72;5053168;28;20984;-67
2023/11/20 03:53:31;;;;;;;2.50;0.60;;;;;;;10.08;100.00;99971.13;5052928;28;20568;-67
2023/11/20 03:55:59;;;;;;;1.93;0.50;;;;;;;10.08;100.00;99973.03;5052946;28;20474;-68
2023/11/20 03:58:25;;;;;;;1.87;0.37;;;;;;;10.09;100.00;99963.78;5052669;28;21033;-69
2023/11/20 04:00:52;;;;;;;1.80;0.40;;;;;;;10.10;100.00;99968.13;5053660;28;20470;-68
2023/11/20 04:03:19;;;;;;;1.80;0.40;;;;;;;10.11;100.00;99965.09;5052369;28;20836;-68
2023/11/20 04:05:45;;;;;;;2.10;0.60;;;;;;;10.14;100.00;99966.38;5052458;28;21028;-68
2023/11/20 04:08:12;;;;;;;2.40;0.50;;;;;;;10.10;100.00;99955.38;5052783;28;20442;-68
2023/11/20 04:10:39;;;;;;;2.40;0.60;;;;;;;10.09;100.00;99963.78;5053095;28;20452;-68
2023/11/20 04:13:09;;;;;;;2.20;0.70;;;;;;;10.09;100.00;99963.78;5053939;28;21024;-68
2023/11/20 04:15:35;;;;;;;1.83;0.40;;;;;;;10.07;100.00;99958.69;5056443;28;20500;-68
2023/11/20 04:18:02;;;;;;;2.00;0.57;;;;;;;10.05;100.00;99952.81;5056618;28;20531;-68
2023/11/20 04:20:28;;;;;;;2.00;0.47;;;;;;;10.07;100.00;99950.59;5056252;28;20489;-68
2023/11/20 04:22:55;;;;;;;2.20;0.60;;;;;;;10.07;100.00;99947.88;5055955;28;20996;-69
2023/11/20 04:25:22;;;;;;;2.07;0.70;;;;;;;10.05;100.00;99947.41;5056185;28;20565;-69
2023/11/20 04:27:51;;;;;;;1.80;0.43;;;;;;;10.06;100.00;99945.50;5055830;28;20438;-69
2023/11/20 04:30:20;;;;;;;2.00;0.50;;;;;;;10.05;100.00;99943.91;5056408;28;20450;-69
2023/11/20 04:32:46;;;;;;;1.90;0.43;;;;;;;10.05;100.00;99941.19;5055652;28;20851;-69
2023/11/20 04:35:13;;;;;;;2.40;0.60;;;;;;;10.08;100.00;99935.16;5055578;28;20888;-69
2023/11/20 04:37:40;;;;;;;2.23;0.50;;;;;;;10.06;100.00;99937.38;5055839;28;20987;-69
2023/11/20 04:40:08;;;;;;;2.33;0.73;;;;;;;10.03;100.00;99938.00;5055965;28;20496;-68
2023/11/20 04:42:35;;;;;;;2.60;0.60;;;;;;;10.02;100.00;99926.38;5055944;28;20495;-69
2023/11/20 04:45:02;;;;;;;1.90;0.50;;;;;;;10.00;100.00;99919.69;5055496;28;20454;-67
2023/11/20 04:47:31;;;;;;;2.27;0.67;;;;;;;9.97;100.00;99913.00;5056057;28;20438;-70
2023/11/20 04:49:58;;;;;;;2.10;0.50;;;;;;;9.97;100.00;99920.31;5055920;28;20470;-69
2023/11/20 04:52:25;;;;;;;1.90;0.40;;;;;;;9.96;100.00;99907.88;5055470;28;20525;-69
2023/11/20 04:54:54;;;;;;;1.90;0.47;;;;;;;9.97;100.00;99917.63;5055703;28;20830;-69
2023/11/20 04:57:20;;;;;;;1.87;0.40;;;;;;;9.97;100.00;99915.69;5055388;28;20452;-69
2023/11/20 04:59:47;;;;;;;1.90;0.40;;;;;;;9.95;100.00;99917.13;5055623;28;20477;-70
2023/11/20 05:02:14;;;;;;;2.20;0.60;;;;;;;9.88;100.00;99924.91;5055556;28;20507;-70
2023/11/20 05:04:42;;;;;;;2.10;0.47;;;;;;;9.85;100.00;99919.00;5055490;28;20477;-70
2023/11/20 05:07:08;;;;;;;2.30;0.60;;;;;;;9.90;100.00;99919.97;5055476;28;20466;-70
2023/11/20 05:09:35;;;;;;;2.03;0.57;;;;;;;9.91;100.00;99921.56;5055084;28;20930;-70
2023/11/20 05:12:03;;;;;;;2.20;0.50;;;;;;;9.95;100.00;99920.63;5055367;28;20438;-70
2023/11/20 05:14:30;;;;;;;2.27;0.60;;;;;;;9.99;100.00;99926.19;5055119;28;20482;-69
2023/11/20 05:16:56;;;;;;;2.50;0.67;;;;;;;10.00;100.00;99916.97;5055393;28;20438;-69
2023/11/20 05:19:23;;;;;;;1.90;0.50;;;;;;;9.99;100.00;99923.50;5054819;28;20481;-69
2023/11/20 05:21:51;;;;;;;2.00;0.40;;;;;;;10.01;100.00;99921.28;5054924;28;20450;-69
2023/11/20 05:24:18;;;;;;;2.57;0.50;;;;;;;10.01;100.00;99924.00;5054192;28;20458;-69
2023/11/20 05:26:45;;;;;;;2.00;0.60;;;;;;;10.04;100.00;99923.34;5054728;28;20446;-69
2023/11/20 05:29:12;;;;;;;2.00;0.50;;;;;;;10.06;100.00;99918.44;5054976;28;20431;-70
2023/11/20 05:31:39;;;;;;;1.93;0.47;;;;;;;10.06;100.00;99921.94;5054728;28;20878;-69
2023/11/20 05:34:06;;;;;;;2.20;0.60;;;;;;;10.07;100.00;99918.13;5054767;28;20536;-69
2023/11/20 05:36:33;;;;;;;1.80;0.40;;;;;;;10.09;100.00;99920.50;5054527;28;20537;-69
2023/11/20 05:39:01;;;;;;;2.00;0.60;;;;;;;10.10;100.00;99922.91;5055090;28;20438;-69
2023/11/20 05:41:28;;;;;;;2.30;0.70;;;;;;;10.09;100.00;99917.78;5054691;28;20466;-69
2023/11/20 05:43:54;;;;;;;1.90;0.50;;;;;;;10.12;100.00;99925.28;5054231;28;21041;-69
2023/11/20 05:46:21;;;;;;;1.87;0.40;;;;;;;10.14;100.00;99924.97;5054706;28;20438;-69
2023/11/20 05:48:47;;;;;;;2.10;0.50;;;;;;;10.14;100.00;99931.19;5054595;28;20461;-69
2023/11/20 05:51:18;;;;;;;2.40;0.50;;;;;;;10.16;100.00;99930.88;5055094;28;20525;-69
2023/11/20 05:53:44;;;;;;;1.80;0.40;;;;;;;10.16;100.00;99923.56;5054087;28;20490;-69
2023/11/20 05:56:13;;;;;;;2.20;0.60;;;;;;;10.17;100.00;99933.25;5054834;28;20519;-69
2023/11/20 05:58:40;;;;;;;1.80;0.37;;;;;;;10.15;100.00;99932.00;5054437;28;20438;-69
2023/11/20 06:01:07;;;;;;;1.80;0.40;;;;;;;10.12;100.00;99936.13;5054502;28;20438;-69
2023/11/20 06:03:33;;;;;;;2.03;0.50;;;;;;;10.10;100.00;99939.16;5054214;28;20501;-69
2023/11/20 06:06:00;;;;;;;1.90;0.50;;;;;;;10.13;100.00;99939.63;5054399;28;20896;-69
2023/11/20 06:08:27;;;;;;;2.00;0.50;;;;;;;10.14;100.00;99933.09;5054432;28;20537;-68
2023/11/20 06:10:54;;;;;;;1.80;0.37;;;;;;;10.16;100.00;99936.28;5054229;28;20481;-68
2023/11/20 06:13:22;;;;;;;2.60;0.80;;;;;;;10.14;100.00;99936.63;5054056;28;20569;-68
2023/11/20 06:15:49;;;;;;;2.00;0.50;;;;;;;10.17;100.00;99935.97;5054413;28;20442;-68
2023/11/20 06:18:15;;;;;;;2.00;0.53;;;;;;;10.19;100.00;99931.06;5054002;28;20513;-68
2023/11/20 06:20:43;;;;;;;2.00;0.50;;;;;;;10.17;100.00;99933.25;5054023;28;20440;-68
2023/11/20 06:23:09;;;;;;;2.20;0.60;;;;;;;10.16;100.00;99941.69;5053944;28;20439;-68
2023/11/20 06:25:36;;;;;;;2.03;0.67;;;;;;;10.14;100.00;99939.31;5054089;28;20525;-68
2023/11/20 06:28:02;;;;;;;2.57;0.40;;;;;;;10.14;100.00;99947.44;5053719;28;20517;-69
2023/11/20 06:30:31;;;;;;;1.90;0.40;;;;;;;10.15;100.00;99951.72;5053919;28;20537;-69
2023/11/20 06:32:57;;;;;;;1.80;0.40;;;;;;;10.16;100.00;99949.81;5054472;28;20446;-69
2023/11/20 06:35:24;;;;;;;2.10;0.50;;;;;;;10.15;100.00;99954.44;5053672;28;20466;-69
2023/11/20 06:37:50;;;;;;;2.23;0.60;;;;;;;10.13;100.00;99959.34;5054185;28;20448;-69
2023/11/20 06:40:17;;;;;;;2.10;0.60;;;;;;;10.13;100.00;99961.25;5053876;28;20442;-68
2023/11/20 06:42:44;;;;;;;2.13;0.57;;;;;;;10.14;100.00;99958.25;5054032;28;20470;-66
2023/11/20 06:45:11;;;;;;;2.63;0.60;;;;;;;10.12;100.00;99963.19;5053333;28;20523;-67
2023/11/20 06:47:39;;;;;;;2.57;0.50;;;;;;;10.13;100.00;99972.09;5053887;28;20516;-67
2023/11/20 06:50:08;;;;;;;2.40;0.53;;;;;;;10.13;100.00;99970.19;5053687;28;20438;-65
2023/11/20 06:52:35;;;;;;;1.93;0.47;;;;;;;10.15;100.00;99969.88;5053904;28;20521;-65
2023/11/20 06:55:01;;;;;;;2.33;0.53;;;;;;;10.18;100.00;99971.94;5053469;28;20478;-67
2023/11/20 06:57:28;;;;;;;2.63;0.70;;;;;;;10.21;100.00;99972.13;5053214;28;20863;-67
2023/11/20 06:59:55;;;;;;;1.93;0.43;;;;;;;10.21;100.00;99974.81;5053193;28;20434;-67
2023/11/20 07:02:23;;;;;;;2.20;0.60;;;;;;;10.22;100.00;99978.31;5053374;28;20453;-67
2023/11/20 07:04:51;;;;;;;1.80;0.40;;;;;;;10.25;100.00;99978.53;5067417;22;20489;-68
2023/11/20 07:07:18;;;;;;;2.77;0.80;;;;;;;10.28;100.00;99985.25;5053311;28;20433;-71
2023/11/20 07:09:45;;;;;;;2.93;1.00;;;;;;;10.27;100.00;99989.84;5053778;28;20442;-71
2023/11/20 07:12:12;;;;;;;2.10;0.53;;;;;;;10.31;100.00;99988.13;5053487;28;20446;-70
2023/11/20 07:14:38;;;;;;;2.03;0.53;;;;;;;10.33;100.00;99985.88;5053538;28;20481;-70
2023/11/20 07:17:05;;;;;;;1.80;0.40;;;;;;;10.38;100.00;99984.16;5054265;28;20450;-70
2023/11/20 07:19:32;;;;;;;2.10;0.50;;;;;;;10.36;100.00;99984.47;5053077;28;20529;-70
2023/11/20 07:22:00;;;;;;;2.10;0.60;;;;;;;10.38;100.00;99981.44;5053282;28;20531;-70
2023/11/20 07:24:27;;;;;;;2.60;0.70;;;;;;;10.39;100.00;99983.03;5053171;28;20893;-70
2023/11/20 07:26:54;;;;;;;2.40;0.80;;;;;;;10.40;100.00;99974.59;5053197;28;20446;-70
2023/11/20 07:29:21;;;;;;;2.50;0.87;;;;;;;10.42;100.00;99977.00;5053226;28;20525;-70
2023/11/20 07:31:48;;;;;;;2.80;0.70;;;;;;;10.44;100.00;99985.59;5053581;28;20553;-70
2023/11/20 07:34:14;;;;;;;2.40;0.80;;;;;;;10.45;100.00;99979.09;5053101;28;20488;-70
2023/11/20 07:36:41;;;;;;;2.77;0.60;;;;;;;10.44;100.00;99986.38;5053401;28;20450;-70
2023/11/20 07:39:09;;;;;;;2.10;0.60;;;;;;;10.44;100.00;99996.41;5053606;28;20946;-70
2023/11/20 07:41:36;;;;;;;2.10;0.60;;;;;;;10.43;100.00;99992.13;5052794;28;20446;-70
2023/11/20 07:44:03;;;;;;;2.30;0.57;;;;;;;10.42;100.00;99991.31;5053049;28;20549;-70
2023/11/20 07:46:30;;;;;;;2.30;0.80;;;;;;;10.44;100.00;99991.00;5053532;28;20449;-70
2023/11/20 07:48:58;;;;;;;2.00;0.50;;;;;;;10.46;100.00;99997.72;5056081;28;20473;-70
2023/11/20 07:51:24;;;;;;;2.03;0.50;;;;;;;10.46;100.00;99997.72;5057006;28;21003;-70
2023/11/20 07:53:51;;;;;;;2.60;0.70;;;;;;;10.47;100.00;99993.09;5056491;28;20500;-70
2023/11/20 07:56:19;;;;;;;2.03;0.57;;;;;;;10.49;100.00;100001.69;5056729;28;20442;-70
2023/11/20 07:58:46;;;;;;;2.20;0.70;;;;;;;10.49;100.00;100004.41;5056719;28;20549;-70
2023/11/20 08:01:12;;;;;;;2.70;0.97;;;;;;;10.51;100.00;100002.19;5057014;28;20442;-70
2023/11/20 08:03:39;;;;;;;2.20;0.50;;;;;;;10.53;100.00;99999.94;5056720;28;20509;-70
2023/11/20 08:06:06;;;;;;;2.00;0.60;;;;;;;10.54;100.00;100004.28;5056253;28;20545;-70
2023/11/20 08:08:32;;;;;;;2.33;0.63;;;;;;;10.56;100.00;100008.25;5056860;28;20457;-70
2023/11/20 08:10:59;;;;;;;2.00;0.50;;;;;;;10.58;100.00;100010.63;5056600;28;21019;-70
2023/11/20 08:13:27;;;;;;;2.10;0.73;;;;;;;10.60;100.00;100011.13;5055941;28;21065;-70
2023/11/20 08:15:54;;;;;;;2.30;0.70;;;;;;;10.60;100.00;100014.63;5056975;28;20534;-73
2023/11/20 08:18:20;;;;;;;2.50;0.80;;;;;;;10.61;100.00;100018.13;5056319;28;20433;-71
2023/11/20 08:20:48;;;;;;;2.33;0.80;;;;;;;10.64;100.00;100014.00;5056480;28;20441;-76
2023/11/20 08:23:15;;;;;;;2.20;0.57;;;;;;;10.66;100.00;100019.88;5056288;28;20980;-75
2023/11/20 08:25:41;;;;;;;9.57;1.30;;;;;;;10.66;100.00;100026.09;5056475;28;20560;-76
2023/11/20 08:28:08;;;;;;;4.77;1.03;;;;;;;10.71;100.00;100027.88;5056213;28;20549;-75
2023/11/20 08:30:36;;;;;;;2.37;0.90;;;;;;;10.78;100.00;100023.59;5056577;28;20474;-72
2023/11/20 08:33:03;;;;;;;2.17;0.73;;;;;;;10.80;100.00;100023.25;5056466;28;20495;-74
2023/11/20 08:35:29;;;;;;;2.73;0.80;;;;;;;10.87;100.00;100023.59;5056025;28;20928;-73
2023/11/20 08:37:58;;;;;;;2.83;0.83;;;;;;;10.90;100.00;100027.59;5055686;28;20441;-72
2023/11/20 08:40:24;;;;;;;2.10;0.50;;;;;;;10.94;100.00;100040.19;5055972;28;20496;-69
2023/11/20 08:42:52;;;;;;;2.93;1.10;;;;;;;10.95;100.00;100038.28;5055755;28;20438;-69
2023/11/20 08:45:18;;;;;;;2.33;0.83;;;;;;;10.99;100.00;100037.34;5055734;28;20547;-69
2023/11/20 08:47:46;;;;;;;3.70;1.60;;;;;;;11.05;100.00;100033.34;5056330;28;20496;-69
2023/11/20 08:50:14;;;;;;;2.63;0.87;;;;;;;11.04;100.00;100031.75;5055881;28;20500;-69
2023/11/20 08:52:40;;;;;;;2.33;0.90;;;;;;;11.08;100.00;100031.94;5055740;28;20443;-68
2023/11/20 08:55:08;;;;;;;2.93;1.23;;;;;;;11.10;100.00;100027.75;5055817;28;20533;-72
2023/11/20 08:57:35;;;;;;;2.70;0.97;;;;;;;11.15;100.00;100028.72;5055715;28;20442;-72
2023/11/20 09:00:02;;;;;;;2.67;0.97;;;;;;;11.15;100.00;100026.00;5055353;28;20518;-72
2023/11/20 09:02:29;;;;;;;3.83;1.23;;;;;;;11.17;100.00;100032.72;5055630;28;20476;-70
2023/11/20 09:04:57;;;;;;;3.27;1.10;;;;;;;11.13;100.00;100029.06;5055415;28;20502;-67
2023/11/20 09:07:23;;;;;;;2.93;1.17;;;;;;;11.09;100.00;100028.88;5055156;28;20934;-70
2023/11/20 09:09:50;;;;;;;2.23;0.70;;;;;;;11.06;100.00;100032.22;5055395;28;20444;-73
2023/11/20 09:12:16;;;;;;;2.53;1.03;;;;;;;11.05;100.00;100041.47;5055311;28;20533;-71
2023/11/20 09:14:44;;;;;;;2.20;0.80;;;;;;;11.02;100.00;100033.19;5055140;28;20524;-72
2023/11/20 09:17:13;;;;;;;4.30;1.50;;;;;;;11.03;100.00;100040.22;5055610;28;20496;-72
2023/11/20 09:19:39;;;;;;;3.90;1.40;;;;;;;11.08;100.00;100029.22;5055272;28;20442;-72
2023/11/20 09:22:07;;;;;;;2.93;1.17;;;;;;;11.10;100.00;100037.81;5055221;28;20880;-72
2023/11/20 09:24:34;;;;;;;2.80;1.07;;;;;;;11.08;100.00;100032.72;5055323;28;20487;-72
2023/11/20 09:27:00;;;;;;;2.70;1.10;;;;;;;11.08;100.00;100046.28;5055098;28;20521;-72
2023/11/20 09:29:27;;;;;;;3.20;1.07;;;;;;;11.11;100.00;100047.53;5055324;28;20526;-72
2023/11/20 09:31:54;;;;;;;2.50;0.93;;;;;;;11.10;100.00;100032.38;5054929;28;20941;-72
2023/11/20 09:34:23;;;;;;;2.00;0.47;;;;;;;11.13;100.00;100039.91;5054802;28;20540;-72
2023/11/20 09:36:50;;;;;;;2.90;1.10;;;;;;;11.13;100.00;100034.47;5055342;28;20529;-72
2023/11/20 09:39:18;;;;;;;2.33;0.83;;;;;;;11.12;100.00;100038.31;5054898;28;20442;-72
2023/11/20 09:41:46;;;;;;;3.10;1.13;;;;;;;11.12;100.00;100032.88;5054574;28;20836;-72
2023/11/20 09:44:13;;;;;;;2.00;0.50;;;;;;;11.13;100.00;100039.09;5054698;28;20532;-72
2023/11/20 09:46:44;;;;;;;2.20;0.80;;;;;;;11.14;100.00;100029.84;5054416;28;20438;-72
2023/11/20 09:49:15;;;;;;;3.07;1.10;;;;;;;11.18;100.00;100036.22;5054666;28;20427;-72
2023/11/20 09:51:43;;;;;;;3.00;0.97;;;;;;;11.23;100.00;100036.06;5054651;28;20454;-72
2023/11/20 09:54:13;;;;;;;3.13;0.83;;;;;;;11.25;100.00;100041.97;5054405;28;20489;-72
2023/11/20 09:56:41;;;;;;;2.73;0.97;;;;;;;11.26;100.00;100036.22;5054803;28;20446;-69
2023/11/20 09:59:09;;;;;;;2.67;0.80;;;;;;;11.31;100.00;100038.78;5054279;28;20442;-71
2023/11/20 10:01:36;;;;;;;2.30;0.60;;;;;;;11.33;100.00;100038.44;5054426;28;20537;-72
2023/11/20 10:04:04;;;;;;;2.30;0.70;;;;;;;11.35;100.00;100031.59;5054169;28;20466;-72
2023/11/20 10:06:33;;;;;;;1.90;0.50;;;;;;;11.35;100.00;100042.44;5054056;28;20504;-72
2023/11/20 10:09:02;;;;;;;2.10;0.60;;;;;;;11.35;100.00;100036.22;5054281;28;20482;-72
2023/11/20 10:11:33;;;;;;;2.20;0.60;;;;;;;11.34;100.00;100037.34;5053968;28;20528;-72
2023/11/20 10:14:01;;;;;;;2.90;1.00;;;;;;;11.37;100.00;100029.34;5054241;28;20462;-72
2023/11/20 10:16:32;;;;;;;2.30;0.70;;;;;;;11.42;100.00;100031.13;5054217;28;20469;-72
2023/11/20 10:18:59;;;;;;;2.30;0.80;;;;;;;11.43;100.00;100034.66;5053897;28;20423;-72
2023/11/20 10:21:29;;;;;;;2.40;0.73;;;;;;;11.48;100.00;100039.91;5054314;28;20482;-72
2023/11/20 10:23:57;;;;;;;4.07;1.03;;;;;;;11.56;100.00;100033.69;5053949;28;20465;-72
2023/11/20 10:26:23;;;;;;;3.87;1.20;;;;;;;11.63;100.00;100033.97;5054409;28;20446;-72
2023/11/20 10:28:50;;;;;;;3.27;1.20;;;;;;;11.63;100.00;100036.69;5053940;28;20465;-72
2023/11/20 10:31:18;;;;;;;2.97;1.10;;;;;;;11.63;100.00;100032.03;5054228;28;20448;-72
2023/11/20 10:33:45;;;;;;;2.47;0.90;;;;;;;11.63;100.00;100032.03;5054582;28;20484;-73
2023/11/20 10:36:13;;;;;;;2.37;0.70;;;;;;;11.70;100.00;100025.34;5053771;28;20568;-72
2023/11/20 10:38:39;;;;;;;2.73;0.90;;;;;;;11.74;100.00;100027.09;5053720;28;20946;-72
2023/11/20 10:41:08;;;;;;;2.80;0.90;;;;;;;11.74;100.00;100029.03;5053867;28;20458;-73
2023/11/20 10:43:36;;;;;;;2.80;1.17;;;;;;;11.72;100.00;100028.53;5053770;28;20462;-73
2023/11/20 10:46:05;;;;;;;2.47;0.80;;;;;;;11.69;100.00;100024.56;5054591;28;20434;-73
2023/11/20 10:48:34;;;;;;;2.63;1.03;;;;;;;11.65;100.00;100031.75;5053642;28;20525;-73
2023/11/20 10:51:07;;;;;;;2.57;0.80;;;;;;;11.66;100.00;100022.47;5053966;28;20852;-72
2023/11/20 10:53:38;;;;;;;3.10;1.03;;;;;;;11.68;100.00;100033.78;5053437;28;20454;-73
2023/11/20 10:56:07;;;;;;;3.67;1.23;;;;;;;11.68;100.00;100027.56;5053847;28;20474;-72
2023/11/20 10:58:34;;;;;;;2.40;0.60;;;;;;;11.69;100.00;100034.63;5053513;28;20529;-72
2023/11/20 11:01:02;;;;;;;2.30;0.73;;;;;;;11.67;100.00;100032.22;5053550;28;20469;-72
2023/11/20 11:03:30;;;;;;;2.77;0.70;;;;;;;11.65;100.00;100029.03;5053193;28;20496;-72
2023/11/20 11:06:03;;;;;;;2.63;0.90;;;;;;;11.69;100.00;100024.56;5053414;28;20457;-72
2023/11/20 11:08:30;;;;;;;3.13;0.80;;;;;;;11.66;100.00;100035.25;5053896;28;20451;-73
2023/11/20 11:10:58;;;;;;;2.80;0.93;;;;;;;11.63;100.00;100025.81;5053754;28;20434;-73
2023/11/20 11:13:32;;;;;;;2.10;0.80;;;;;;;11.63;100.00;100028.53;5053450;28;20466;-73
2023/11/20 11:16:00;;;;;;;2.73;1.07;;;;;;;11.62;100.00;100032.38;5053054;28;20986;-72
2023/11/20 11:18:29;;;;;;;2.30;0.60;;;;;;;11.61;100.00;100030.78;5053454;28;20461;-72
2023/11/20 11:20:58;;;;;;;2.37;0.60;;;;;;;11.57;100.00;100027.91;5053535;28;20453;-72
2023/11/20 11:23:31;;;;;;;2.53;0.90;;;;;;;11.58;100.00;100029.50;5057546;28;20453;-72